Eastern Oregon Regional At Pendleton Airport
KPDT : now visible

Airfield :











YOU CAN JOIN US ON...

 
LOGIN :

Register | Disclaimer

   EN    FR    IT 

 









Legend :    VFR   Marginal VFR   IFR   Intensive IFR   Very Intensive IFR
Visi :
Ceiling :
>= 8 km
>= 3000ft
5 to 8 km
1000 to 3000 ft
1500m to 5 km
500 to 1000 ft
800 to 1500m
200 to 500 ft
< 800m
< 200 ft
Symbols :   Thunderstorms  Fog  Heavy snow  Heavy precipitations  Wind > 20 kt






- Airport Elevation : 1497 ft


KPDT - Eastern Oregon Regional At Pendleton

CURRENT METAR :
  • 291153Z AUTO 18016G25KT 10SM CLR 14/00 A2938 RMK AO2 PK WND 18030/1113 SLP940 70001 T01440000 10150 20117 56039

EXPIRED METARs :
  • 291053Z AUTO 18018G27KT 10SM CLR 14/00 A2941 RMK AO2 PK WND 16027/1053 SLP949 T01440000
  • 290953Z AUTO 12012KT 10SM SCT110 12/02 A2946 RMK AO2 SLP966 T01220017
  • 290853Z AUTO 12014KT 10SM OVC090 13/02 A2950 RMK AO2 SLP983 T01330017 58032
  • 290753Z AUTO 17014G23KT 10SM OVC095 14/02 A2955 RMK AO2 PK WND 17030/0718 SLP997 T01390022 401440061

TAF KPDT
Valid from the 29 at 12:00 until the 01 at 12:00 UTC


291128Z 2912/0112 18020G30KT P6SM OVC080
FM291600 25020G30KT P6SM -RA SCT030 OVC050
FM292100 24013G25KT P6SM VCSH SCT050 BKN070
FM010300 23012KT P6SM SCT070 BKN090
KZSE FIR / North America



MET'MAP, your aeronautical weather chart ! - Copyright ORBIFLY December 2007 - Disclaimer

ORBIFLY MET'MAP TEAM :

Programming & Development : Alexandra Zaïnal
Original concept : Baudouin d'Aumeries
Technical & hardware support : Manuel Goepfert
Assistance : Marc-Olivier Méhu




SOURCES & CREDITS :

   NOAA       Earth
Advisory